sensor_id;sensor_type;location;lat;lon;timestamp;P1;durP1;ratioP1;P2;durP2;ratioP2
72621;SDS011;60665;53.506;9.582;2022-07-06T00:01:49;5.47;;;1.35;;
72621;SDS011;60665;53.506;9.582;2022-07-06T00:04:16;5.68;;;1.20;;
72621;SDS011;60665;53.506;9.582;2022-07-06T00:06:41;4.20;;;1.05;;
72621;SDS011;60665;53.506;9.582;2022-07-06T00:09:07;4.18;;;1.00;;
72621;SDS011;60665;53.506;9.582;2022-07-06T00:11:32;3.83;;;1.10;;
72621;SDS011;60665;53.506;9.582;2022-07-06T00:13:58;4.57;;;1.00;;
72621;SDS011;60665;53.506;9.582;2022-07-06T00:16:23;6.72;;;1.20;;
72621;SDS011;60665;53.506;9.582;2022-07-06T00:18:49;4.13;;;1.00;;
72621;SDS011;60665;53.506;9.582;2022-07-06T00:21:15;5.05;;;1.17;;
72621;SDS011;60665;53.506;9.582;2022-07-06T00:23:40;6.10;;;1.35;;
72621;SDS011;60665;53.506;9.582;2022-07-06T00:26:06;3.28;;;0.95;;
72621;SDS011;60665;53.506;9.582;2022-07-06T00:28:32;6.88;;;1.20;;
72621;SDS011;60665;53.506;9.582;2022-07-06T00:30:57;5.18;;;1.13;;
72621;SDS011;60665;53.506;9.582;2022-07-06T00:33:22;3.88;;;1.13;;
72621;SDS011;60665;53.506;9.582;2022-07-06T00:35:48;3.00;;;1.05;;
72621;SDS011;60665;53.506;9.582;2022-07-06T00:38:13;3.85;;;1.20;;
72621;SDS011;60665;53.506;9.582;2022-07-06T00:40:39;5.45;;;1.25;;
72621;SDS011;60665;53.506;9.582;2022-07-06T00:43:04;2.50;;;0.82;;
72621;SDS011;60665;53.506;9.582;2022-07-06T00:45:29;4.07;;;1.08;;
72621;SDS011;60665;53.506;9.582;2022-07-06T00:47:55;4.65;;;1.13;;
72621;SDS011;60665;53.506;9.582;2022-07-06T00:50:20;4.38;;;1.10;;
72621;SDS011;60665;53.506;9.582;2022-07-06T00:52:48;4.65;;;1.10;;
72621;SDS011;60665;53.506;9.582;2022-07-06T00:55:14;2.95;;;1.05;;
72621;SDS011;60665;53.506;9.582;2022-07-06T00:57:40;3.47;;;1.10;;
72621;SDS011;60665;53.506;9.582;2022-07-06T01:00:07;4.05;;;0.90;;
72621;SDS011;60665;53.506;9.582;2022-07-06T01:02:34;4.82;;;1.10;;
72621;SDS011;60665;53.506;9.582;2022-07-06T01:05:00;4.60;;;1.10;;
72621;SDS011;60665;53.506;9.582;2022-07-06T01:07:26;4.75;;;1.08;;
72621;SDS011;60665;53.506;9.582;2022-07-06T01:09:52;4.68;;;1.10;;
72621;SDS011;60665;53.506;9.582;2022-07-06T01:12:18;4.53;;;1.02;;
72621;SDS011;60665;53.506;9.582;2022-07-06T01:14:43;4.72;;;1.00;;
72621;SDS011;60665;53.506;9.582;2022-07-06T01:17:10;6.30;;;1.63;;
72621;SDS011;60665;53.506;9.582;2022-07-06T01:19:35;5.22;;;1.20;;
72621;SDS011;60665;53.506;9.582;2022-07-06T01:22:01;4.82;;;1.30;;
72621;SDS011;60665;53.506;9.582;2022-07-06T01:24:26;4.88;;;1.20;;
72621;SDS011;60665;53.506;9.582;2022-07-06T01:26:52;3.83;;;1.00;;
72621;SDS011;60665;53.506;9.582;2022-07-06T01:29:17;5.65;;;1.38;;
72621;SDS011;60665;53.506;9.582;2022-07-06T01:31:49;6.07;;;1.08;;
72621;SDS011;60665;53.506;9.582;2022-07-06T01:34:18;4.85;;;1.15;;
72621;SDS011;60665;53.506;9.582;2022-07-06T01:36:43;6.65;;;1.10;;
72621;SDS011;60665;53.506;9.582;2022-07-06T01:39:10;4.25;;;1.10;;
72621;SDS011;60665;53.506;9.582;2022-07-06T01:41:36;5.40;;;1.10;;
72621;SDS011;60665;53.506;9.582;2022-07-06T01:44:02;5.28;;;1.33;;
72621;SDS011;60665;53.506;9.582;2022-07-06T01:46:27;4.30;;;1.30;;
72621;SDS011;60665;53.506;9.582;2022-07-06T01:48:53;5.70;;;1.30;;
72621;SDS011;60665;53.506;9.582;2022-07-06T01:51:18;6.80;;;1.70;;
72621;SDS011;60665;53.506;9.582;2022-07-06T01:53:43;4.10;;;1.30;;
72621;SDS011;60665;53.506;9.582;2022-07-06T01:56:09;8.02;;;1.40;;
72621;SDS011;60665;53.506;9.582;2022-07-06T01:58:35;3.47;;;1.10;;
72621;SDS011;60665;53.506;9.582;2022-07-06T02:01:01;4.40;;;1.08;;
72621;SDS011;60665;53.506;9.582;2022-07-06T02:03:32;4.18;;;1.20;;
72621;SDS011;60665;53.506;9.582;2022-07-06T02:05:57;3.92;;;1.10;;
72621;SDS011;60665;53.506;9.582;2022-07-06T02:08:22;6.85;;;1.30;;
72621;SDS011;60665;53.506;9.582;2022-07-06T02:10:48;4.43;;;1.10;;
72621;SDS011;60665;53.506;9.582;2022-07-06T02:13:13;5.82;;;1.25;;
72621;SDS011;60665;53.506;9.582;2022-07-06T02:15:38;4.85;;;1.40;;
72621;SDS011;60665;53.506;9.582;2022-07-06T02:18:04;7.95;;;1.38;;
72621;SDS011;60665;53.506;9.582;2022-07-06T02:20:29;4.60;;;1.15;;
72621;SDS011;60665;53.506;9.582;2022-07-06T02:22:54;4.07;;;0.90;;
72621;SDS011;60665;53.506;9.582;2022-07-06T02:25:20;5.30;;;1.20;;
72621;SDS011;60665;53.506;9.582;2022-07-06T02:27:45;3.17;;;0.98;;
72621;SDS011;60665;53.506;9.582;2022-07-06T02:30:11;4.88;;;1.33;;
72621;SDS011;60665;53.506;9.582;2022-07-06T02:32:36;5.68;;;1.10;;
72621;SDS011;60665;53.506;9.582;2022-07-06T02:35:01;6.68;;;1.50;;
72621;SDS011;60665;53.506;9.582;2022-07-06T02:37:27;4.53;;;1.20;;
72621;SDS011;60665;53.506;9.582;2022-07-06T02:39:52;4.65;;;1.23;;
72621;SDS011;60665;53.506;9.582;2022-07-06T02:42:18;4.82;;;1.30;;
72621;SDS011;60665;53.506;9.582;2022-07-06T02:44:43;5.97;;;1.90;;
72621;SDS011;60665;53.506;9.582;2022-07-06T02:47:08;6.72;;;1.30;;
72621;SDS011;60665;53.506;9.582;2022-07-06T02:49:34;6.03;;;1.63;;
72621;SDS011;60665;53.506;9.582;2022-07-06T02:51:59;4.18;;;1.00;;
72621;SDS011;60665;53.506;9.582;2022-07-06T02:54:25;4.07;;;1.20;;
72621;SDS011;60665;53.506;9.582;2022-07-06T02:56:50;5.70;;;1.17;;
72621;SDS011;60665;53.506;9.582;2022-07-06T02:59:19;6.15;;;1.30;;
72621;SDS011;60665;53.506;9.582;2022-07-06T03:01:45;2.95;;;1.00;;
72621;SDS011;60665;53.506;9.582;2022-07-06T03:04:10;3.38;;;1.13;;
72621;SDS011;60665;53.506;9.582;2022-07-06T03:06:36;4.38;;;1.10;;
72621;SDS011;60665;53.506;9.582;2022-07-06T03:09:01;4.32;;;1.20;;
72621;SDS011;60665;53.506;9.582;2022-07-06T03:11:27;5.38;;;1.58;;
72621;SDS011;60665;53.506;9.582;2022-07-06T03:13:52;5.43;;;1.23;;
72621;SDS011;60665;53.506;9.582;2022-07-06T03:16:17;5.95;;;1.35;;
72621;SDS011;60665;53.506;9.582;2022-07-06T03:18:43;8.93;;;1.40;;
72621;SDS011;60665;53.506;9.582;2022-07-06T03:21:08;5.75;;;1.30;;
72621;SDS011;60665;53.506;9.582;2022-07-06T03:23:33;6.95;;;1.25;;
72621;SDS011;60665;53.506;9.582;2022-07-06T03:25:59;6.00;;;1.25;;
72621;SDS011;60665;53.506;9.582;2022-07-06T03:28:25;6.30;;;1.48;;
72621;SDS011;60665;53.506;9.582;2022-07-06T03:30:50;4.95;;;1.20;;
72621;SDS011;60665;53.506;9.582;2022-07-06T03:33:15;6.80;;;1.35;;
72621;SDS011;60665;53.506;9.582;2022-07-06T03:35:41;8.93;;;1.23;;
72621;SDS011;60665;53.506;9.582;2022-07-06T03:38:06;4.13;;;1.10;;
72621;SDS011;60665;53.506;9.582;2022-07-06T03:40:31;4.80;;;1.10;;
72621;SDS011;60665;53.506;9.582;2022-07-06T03:42:57;7.50;;;1.45;;
72621;SDS011;60665;53.506;9.582;2022-07-06T03:45:22;5.13;;;1.40;;
72621;SDS011;60665;53.506;9.582;2022-07-06T03:47:47;5.57;;;1.33;;
72621;SDS011;60665;53.506;9.582;2022-07-06T03:50:13;5.78;;;1.30;;
72621;SDS011;60665;53.506;9.582;2022-07-06T03:52:38;4.90;;;1.38;;
72621;SDS011;60665;53.506;9.582;2022-07-06T03:55:06;4.85;;;1.17;;
72621;SDS011;60665;53.506;9.582;2022-07-06T03:57:38;3.08;;;0.98;;
72621;SDS011;60665;53.506;9.582;2022-07-06T04:00:05;3.72;;;0.93;;
72621;SDS011;60665;53.506;9.582;2022-07-06T04:02:32;6.72;;;1.00;;
72621;SDS011;60665;53.506;9.582;2022-07-06T04:04:58;3.97;;;0.85;;
72621;SDS011;60665;53.506;9.582;2022-07-06T04:07:23;4.13;;;1.10;;
72621;SDS011;60665;53.506;9.582;2022-07-06T04:09:50;5.03;;;0.90;;
72621;SDS011;60665;53.506;9.582;2022-07-06T04:12:15;3.53;;;1.02;;
72621;SDS011;60665;53.506;9.582;2022-07-06T04:14:40;3.50;;;0.90;;
72621;SDS011;60665;53.506;9.582;2022-07-06T04:17:06;5.57;;;0.95;;
72621;SDS011;60665;53.506;9.582;2022-07-06T04:19:50;4.45;;;1.23;;
72621;SDS011;60665;53.506;9.582;2022-07-06T04:22:15;3.55;;;0.98;;
72621;SDS011;60665;53.506;9.582;2022-07-06T04:24:41;4.05;;;1.00;;
72621;SDS011;60665;53.506;9.582;2022-07-06T04:27:06;4.70;;;1.10;;
72621;SDS011;60665;53.506;9.582;2022-07-06T04:29:32;3.80;;;0.90;;
72621;SDS011;60665;53.506;9.582;2022-07-06T04:31:57;6.10;;;1.02;;
72621;SDS011;60665;53.506;9.582;2022-07-06T04:34:23;4.82;;;1.00;;
72621;SDS011;60665;53.506;9.582;2022-07-06T04:36:48;5.95;;;1.00;;
72621;SDS011;60665;53.506;9.582;2022-07-06T04:39:14;4.68;;;1.10;;
72621;SDS011;60665;53.506;9.582;2022-07-06T04:41:39;6.03;;;1.20;;
72621;SDS011;60665;53.506;9.582;2022-07-06T04:44:04;4.55;;;1.02;;
72621;SDS011;60665;53.506;9.582;2022-07-06T04:46:30;4.53;;;1.10;;
72621;SDS011;60665;53.506;9.582;2022-07-06T04:48:55;6.43;;;1.20;;
72621;SDS011;60665;53.506;9.582;2022-07-06T04:51:21;6.88;;;1.75;;
72621;SDS011;60665;53.506;9.582;2022-07-06T04:53:46;4.18;;;1.00;;
72621;SDS011;60665;53.506;9.582;2022-07-06T04:56:11;8.00;;;1.38;;
72621;SDS011;60665;53.506;9.582;2022-07-06T04:58:37;8.00;;;1.10;;
72621;SDS011;60665;53.506;9.582;2022-07-06T05:01:02;5.63;;;1.10;;
72621;SDS011;60665;53.506;9.582;2022-07-06T05:03:28;4.75;;;1.20;;
72621;SDS011;60665;53.506;9.582;2022-07-06T05:05:53;5.63;;;1.33;;
72621;SDS011;60665;53.506;9.582;2022-07-06T05:08:18;4.13;;;1.10;;
72621;SDS011;60665;53.506;9.582;2022-07-06T05:10:44;5.10;;;1.00;;
72621;SDS011;60665;53.506;9.582;2022-07-06T05:13:09;5.13;;;1.05;;
72621;SDS011;60665;53.506;9.582;2022-07-06T05:15:35;3.63;;;1.00;;
72621;SDS011;60665;53.506;9.582;2022-07-06T05:18:00;6.05;;;0.80;;
72621;SDS011;60665;53.506;9.582;2022-07-06T05:20:26;4.32;;;1.00;;
72621;SDS011;60665;53.506;9.582;2022-07-06T05:22:51;4.75;;;0.93;;
72621;SDS011;60665;53.506;9.582;2022-07-06T05:25:16;3.65;;;0.70;;
72621;SDS011;60665;53.506;9.582;2022-07-06T05:27:42;5.40;;;0.80;;
72621;SDS011;60665;53.506;9.582;2022-07-06T05:30:07;4.20;;;0.90;;
72621;SDS011;60665;53.506;9.582;2022-07-06T05:32:33;6.00;;;0.88;;
72621;SDS011;60665;53.506;9.582;2022-07-06T05:34:58;3.92;;;0.90;;
72621;SDS011;60665;53.506;9.582;2022-07-06T05:37:24;3.97;;;1.00;;
72621;SDS011;60665;53.506;9.582;2022-07-06T05:39:49;3.88;;;0.70;;
72621;SDS011;60665;53.506;9.582;2022-07-06T05:42:15;5.05;;;0.90;;
72621;SDS011;60665;53.506;9.582;2022-07-06T05:44:41;5.07;;;0.90;;
72621;SDS011;60665;53.506;9.582;2022-07-06T05:47:06;3.20;;;0.65;;
72621;SDS011;60665;53.506;9.582;2022-07-06T05:49:50;3.90;;;0.80;;
72621;SDS011;60665;53.506;9.582;2022-07-06T05:52:34;4.93;;;0.90;;
72621;SDS011;60665;53.506;9.582;2022-07-06T05:55:00;3.05;;;0.80;;
72621;SDS011;60665;53.506;9.582;2022-07-06T05:57:25;3.50;;;0.90;;
72621;SDS011;60665;53.506;9.582;2022-07-06T05:59:51;3.78;;;0.80;;
72621;SDS011;60665;53.506;9.582;2022-07-06T06:02:16;4.28;;;0.88;;
72621;SDS011;60665;53.506;9.582;2022-07-06T06:04:42;3.63;;;0.82;;
72621;SDS011;60665;53.506;9.582;2022-07-06T06:07:07;4.22;;;0.95;;
72621;SDS011;60665;53.506;9.582;2022-07-06T06:09:32;4.30;;;0.93;;
72621;SDS011;60665;53.506;9.582;2022-07-06T06:11:58;5.00;;;1.08;;
72621;SDS011;60665;53.506;9.582;2022-07-06T06:14:23;5.70;;;1.00;;
72621;SDS011;60665;53.506;9.582;2022-07-06T06:16:48;4.82;;;0.75;;
72621;SDS011;60665;53.506;9.582;2022-07-06T06:19:14;5.40;;;1.20;;
72621;SDS011;60665;53.506;9.582;2022-07-06T06:21:40;3.35;;;0.70;;
72621;SDS011;60665;53.506;9.582;2022-07-06T06:24:05;5.53;;;1.10;;
72621;SDS011;60665;53.506;9.582;2022-07-06T06:26:31;3.50;;;0.80;;
72621;SDS011;60665;53.506;9.582;2022-07-06T06:28:56;6.20;;;0.98;;
72621;SDS011;60665;53.506;9.582;2022-07-06T06:31:22;6.63;;;0.90;;
72621;SDS011;60665;53.506;9.582;2022-07-06T06:33:47;7.03;;;0.95;;
72621;SDS011;60665;53.506;9.582;2022-07-06T06:36:13;5.20;;;0.85;;
72621;SDS011;60665;53.506;9.582;2022-07-06T06:38:38;4.32;;;1.05;;
72621;SDS011;60665;53.506;9.582;2022-07-06T06:41:03;5.25;;;0.63;;
72621;SDS011;60665;53.506;9.582;2022-07-06T06:43:29;3.53;;;0.85;;
72621;SDS011;60665;53.506;9.582;2022-07-06T06:45:54;5.10;;;0.90;;
72621;SDS011;60665;53.506;9.582;2022-07-06T06:48:20;5.80;;;0.93;;
72621;SDS011;60665;53.506;9.582;2022-07-06T06:50:45;3.55;;;0.70;;
72621;SDS011;60665;53.506;9.582;2022-07-06T06:53:11;5.20;;;0.82;;
72621;SDS011;60665;53.506;9.582;2022-07-06T06:55:37;6.47;;;0.80;;
72621;SDS011;60665;53.506;9.582;2022-07-06T06:58:03;4.80;;;1.00;;
72621;SDS011;60665;53.506;9.582;2022-07-06T07:00:28;3.25;;;0.70;;
72621;SDS011;60665;53.506;9.582;2022-07-06T07:02:54;4.90;;;0.70;;
72621;SDS011;60665;53.506;9.582;2022-07-06T07:05:19;4.00;;;0.70;;
72621;SDS011;60665;53.506;9.582;2022-07-06T07:07:44;4.40;;;0.80;;
72621;SDS011;60665;53.506;9.582;2022-07-06T07:10:10;4.07;;;0.63;;
72621;SDS011;60665;53.506;9.582;2022-07-06T07:12:41;5.30;;;0.88;;
72621;SDS011;60665;53.506;9.582;2022-07-06T07:15:12;4.65;;;0.80;;
72621;SDS011;60665;53.506;9.582;2022-07-06T07:17:38;4.43;;;0.80;;
72621;SDS011;60665;53.506;9.582;2022-07-06T07:20:04;3.58;;;0.95;;
72621;SDS011;60665;53.506;9.582;2022-07-06T07:22:31;4.47;;;0.80;;
72621;SDS011;60665;53.506;9.582;2022-07-06T07:24:56;7.25;;;1.00;;
72621;SDS011;60665;53.506;9.582;2022-07-06T07:27:23;7.53;;;1.13;;
72621;SDS011;60665;53.506;9.582;2022-07-06T07:29:49;3.03;;;0.70;;
72621;SDS011;60665;53.506;9.582;2022-07-06T07:32:15;4.70;;;0.75;;
72621;SDS011;60665;53.506;9.582;2022-07-06T07:34:40;7.65;;;0.70;;
72621;SDS011;60665;53.506;9.582;2022-07-06T07:37:05;4.97;;;0.82;;
72621;SDS011;60665;53.506;9.582;2022-07-06T07:39:31;3.38;;;0.65;;
72621;SDS011;60665;53.506;9.582;2022-07-06T07:41:56;4.13;;;0.95;;
72621;SDS011;60665;53.506;9.582;2022-07-06T07:44:21;4.13;;;0.77;;
72621;SDS011;60665;53.506;9.582;2022-07-06T07:46:47;5.60;;;0.82;;
72621;SDS011;60665;53.506;9.582;2022-07-06T07:49:12;5.85;;;1.05;;
72621;SDS011;60665;53.506;9.582;2022-07-06T07:51:38;7.35;;;1.23;;
72621;SDS011;60665;53.506;9.582;2022-07-06T07:54:03;4.07;;;0.60;;
72621;SDS011;60665;53.506;9.582;2022-07-06T07:56:28;4.57;;;0.70;;
72621;SDS011;60665;53.506;9.582;2022-07-06T07:58:54;3.63;;;0.70;;
72621;SDS011;60665;53.506;9.582;2022-07-06T08:01:19;3.67;;;0.60;;
72621;SDS011;60665;53.506;9.582;2022-07-06T08:03:45;3.13;;;0.57;;
72621;SDS011;60665;53.506;9.582;2022-07-06T08:06:10;4.57;;;0.60;;
72621;SDS011;60665;53.506;9.582;2022-07-06T08:08:35;4.03;;;0.57;;
72621;SDS011;60665;53.506;9.582;2022-07-06T08:11:01;2.38;;;0.50;;
72621;SDS011;60665;53.506;9.582;2022-07-06T08:13:26;3.53;;;0.60;;
72621;SDS011;60665;53.506;9.582;2022-07-06T08:15:52;3.53;;;0.55;;
72621;SDS011;60665;53.506;9.582;2022-07-06T08:18:17;3.97;;;0.65;;
72621;SDS011;60665;53.506;9.582;2022-07-06T08:20:42;2.40;;;0.45;;
72621;SDS011;60665;53.506;9.582;2022-07-06T08:23:08;2.90;;;0.60;;
72621;SDS011;60665;53.506;9.582;2022-07-06T08:25:33;2.25;;;0.47;;
72621;SDS011;60665;53.506;9.582;2022-07-06T08:27:59;1.90;;;0.32;;
72621;SDS011;60665;53.506;9.582;2022-07-06T08:30:24;4.78;;;0.60;;
72621;SDS011;60665;53.506;9.582;2022-07-06T08:32:50;3.30;;;0.70;;
72621;SDS011;60665;53.506;9.582;2022-07-06T08:35:15;2.97;;;0.50;;
72621;SDS011;60665;53.506;9.582;2022-07-06T08:37:40;3.83;;;0.52;;
72621;SDS011;60665;53.506;9.582;2022-07-06T08:40:06;2.83;;;0.80;;
72621;SDS011;60665;53.506;9.582;2022-07-06T08:42:32;3.75;;;0.70;;
72621;SDS011;60665;53.506;9.582;2022-07-06T08:44:59;2.63;;;0.57;;
72621;SDS011;60665;53.506;9.582;2022-07-06T08:47:28;3.55;;;0.50;;
72621;SDS011;60665;53.506;9.582;2022-07-06T08:49:55;1.90;;;0.40;;
72621;SDS011;60665;53.506;9.582;2022-07-06T08:52:21;1.45;;;0.50;;
72621;SDS011;60665;53.506;9.582;2022-07-06T08:54:47;5.40;;;0.70;;
72621;SDS011;60665;53.506;9.582;2022-07-06T08:57:13;5.53;;;0.73;;
72621;SDS011;60665;53.506;9.582;2022-07-06T08:59:39;4.55;;;0.60;;
72621;SDS011;60665;53.506;9.582;2022-07-06T09:02:05;1.65;;;0.60;;
72621;SDS011;60665;53.506;9.582;2022-07-06T09:04:32;3.88;;;1.05;;
72621;SDS011;60665;53.506;9.582;2022-07-06T09:09:24;3.60;;;0.65;;
72621;SDS011;60665;53.506;9.582;2022-07-06T09:11:50;9.77;;;0.85;;
72621;SDS011;60665;53.506;9.582;2022-07-06T09:14:15;4.15;;;0.60;;
72621;SDS011;60665;53.506;9.582;2022-07-06T09:16:41;4.13;;;0.73;;
72621;SDS011;60665;53.506;9.582;2022-07-06T09:19:07;4.00;;;0.70;;
72621;SDS011;60665;53.506;9.582;2022-07-06T09:21:36;2.83;;;0.70;;
72621;SDS011;60665;53.506;9.582;2022-07-06T09:24:02;3.35;;;0.60;;
72621;SDS011;60665;53.506;9.582;2022-07-06T09:26:31;3.92;;;0.90;;
72621;SDS011;60665;53.506;9.582;2022-07-06T09:28:57;6.70;;;0.77;;
72621;SDS011;60665;53.506;9.582;2022-07-06T09:31:24;4.00;;;0.80;;
72621;SDS011;60665;53.506;9.582;2022-07-06T09:33:53;3.00;;;0.70;;
72621;SDS011;60665;53.506;9.582;2022-07-06T09:36:41;3.25;;;0.60;;
72621;SDS011;60665;53.506;9.582;2022-07-06T09:39:20;1.85;;;0.55;;
72621;SDS011;60665;53.506;9.582;2022-07-06T09:41:49;2.55;;;0.60;;
72621;SDS011;60665;53.506;9.582;2022-07-06T09:46:49;5.68;;;0.65;;
72621;SDS011;60665;53.506;9.582;2022-07-06T09:49:18;3.47;;;0.80;;
72621;SDS011;60665;53.506;9.582;2022-07-06T09:51:45;3.83;;;0.63;;
72621;SDS011;60665;53.506;9.582;2022-07-06T09:54:15;4.00;;;0.50;;
72621;SDS011;60665;53.506;9.582;2022-07-06T09:56:43;3.15;;;0.60;;
72621;SDS011;60665;53.506;9.582;2022-07-06T09:59:11;3.38;;;0.70;;
72621;SDS011;60665;53.506;9.582;2022-07-06T10:01:38;2.70;;;0.50;;
72621;SDS011;60665;53.506;9.582;2022-07-06T10:04:07;3.78;;;0.43;;
72621;SDS011;60665;53.506;9.582;2022-07-06T10:06:34;3.35;;;0.50;;
72621;SDS011;60665;53.506;9.582;2022-07-06T10:08:59;3.15;;;0.63;;
72621;SDS011;60665;53.506;9.582;2022-07-06T10:11:25;3.55;;;0.47;;
72621;SDS011;60665;53.506;9.582;2022-07-06T10:13:55;2.85;;;0.77;;
72621;SDS011;60665;53.506;9.582;2022-07-06T10:16:24;5.05;;;0.70;;
72621;SDS011;60665;53.506;9.582;2022-07-06T10:18:50;4.47;;;0.60;;
72621;SDS011;60665;53.506;9.582;2022-07-06T10:21:21;2.03;;;0.50;;
72621;SDS011;60665;53.506;9.582;2022-07-06T10:26:14;5.25;;;0.60;;
72621;SDS011;60665;53.506;9.582;2022-07-06T10:28:41;3.58;;;0.60;;
72621;SDS011;60665;53.506;9.582;2022-07-06T10:31:07;6.55;;;1.02;;
72621;SDS011;60665;53.506;9.582;2022-07-06T10:33:33;3.17;;;0.60;;
72621;SDS011;60665;53.506;9.582;2022-07-06T10:35:58;6.05;;;0.73;;
72621;SDS011;60665;53.506;9.582;2022-07-06T10:38:33;2.40;;;0.52;;
72621;SDS011;60665;53.506;9.582;2022-07-06T10:41:03;2.50;;;0.50;;
72621;SDS011;60665;53.506;9.582;2022-07-06T10:43:37;2.35;;;0.50;;
72621;SDS011;60665;53.506;9.582;2022-07-06T10:46:07;2.85;;;0.65;;
72621;SDS011;60665;53.506;9.582;2022-07-06T10:48:34;2.20;;;0.60;;
72621;SDS011;60665;53.506;9.582;2022-07-06T10:51:01;2.05;;;0.50;;
72621;SDS011;60665;53.506;9.582;2022-07-06T10:53:31;2.70;;;0.45;;
72621;SDS011;60665;53.506;9.582;2022-07-06T10:56:04;3.80;;;0.60;;
72621;SDS011;60665;53.506;9.582;2022-07-06T10:58:38;3.35;;;0.70;;
72621;SDS011;60665;53.506;9.582;2022-07-06T11:01:16;2.08;;;0.57;;
72621;SDS011;60665;53.506;9.582;2022-07-06T11:06:23;5.30;;;0.90;;
72621;SDS011;60665;53.506;9.582;2022-07-06T11:08:53;4.05;;;0.60;;
72621;SDS011;60665;53.506;9.582;2022-07-06T11:11:24;3.25;;;0.40;;
72621;SDS011;60665;53.506;9.582;2022-07-06T11:13:54;3.28;;;0.55;;
72621;SDS011;60665;53.506;9.582;2022-07-06T11:16:31;3.17;;;0.60;;
72621;SDS011;60665;53.506;9.582;2022-07-06T11:19:11;5.55;;;0.90;;
72621;SDS011;60665;53.506;9.582;2022-07-06T11:21:43;7.88;;;0.60;;
72621;SDS011;60665;53.506;9.582;2022-07-06T11:24:11;5.60;;;0.70;;
72621;SDS011;60665;53.506;9.582;2022-07-06T11:26:47;4.90;;;0.80;;
72621;SDS011;60665;53.506;9.582;2022-07-06T11:29:15;4.32;;;0.68;;
72621;SDS011;60665;53.506;9.582;2022-07-06T11:31:43;4.93;;;0.90;;
72621;SDS011;60665;53.506;9.582;2022-07-06T11:36:36;4.57;;;0.70;;
72621;SDS011;60665;53.506;9.582;2022-07-06T11:39:03;4.28;;;0.70;;
72621;SDS011;60665;53.506;9.582;2022-07-06T11:43:55;3.03;;;1.05;;
72621;SDS011;60665;53.506;9.582;2022-07-06T11:46:21;1.75;;;0.40;;
72621;SDS011;60665;53.506;9.582;2022-07-06T11:48:55;2.50;;;0.55;;
72621;SDS011;60665;53.506;9.582;2022-07-06T11:51:23;8.35;;;0.90;;
72621;SDS011;60665;53.506;9.582;2022-07-06T11:53:50;2.75;;;0.63;;
72621;SDS011;60665;53.506;9.582;2022-07-06T11:56:17;3.05;;;0.60;;
72621;SDS011;60665;53.506;9.582;2022-07-06T11:58:53;3.03;;;0.57;;
72621;SDS011;60665;53.506;9.582;2022-07-06T12:01:20;4.78;;;0.70;;
72621;SDS011;60665;53.506;9.582;2022-07-06T12:03:46;4.05;;;0.80;;
72621;SDS011;60665;53.506;9.582;2022-07-06T12:06:12;4.07;;;0.60;;
72621;SDS011;60665;53.506;9.582;2022-07-06T12:08:44;3.38;;;0.68;;
72621;SDS011;60665;53.506;9.582;2022-07-06T12:11:10;1.63;;;0.35;;
72621;SDS011;60665;53.506;9.582;2022-07-06T12:13:42;0.88;;;0.50;;
72621;SDS011;60665;53.506;9.582;2022-07-06T12:16:09;2.17;;;0.50;;
72621;SDS011;60665;53.506;9.582;2022-07-06T12:18:35;2.55;;;0.57;;
72621;SDS011;60665;53.506;9.582;2022-07-06T12:21:02;2.58;;;0.38;;
72621;SDS011;60665;53.506;9.582;2022-07-06T12:23:37;2.72;;;0.52;;
72621;SDS011;60665;53.506;9.582;2022-07-06T12:26:03;4.38;;;0.65;;
72621;SDS011;60665;53.506;9.582;2022-07-06T12:28:28;1.80;;;0.60;;
72621;SDS011;60665;53.506;9.582;2022-07-06T12:30:54;3.55;;;0.40;;
72621;SDS011;60665;53.506;9.582;2022-07-06T12:33:19;1.95;;;0.40;;
72621;SDS011;60665;53.506;9.582;2022-07-06T12:35:45;2.55;;;0.35;;
72621;SDS011;60665;53.506;9.582;2022-07-06T12:38:10;4.18;;;0.52;;
72621;SDS011;60665;53.506;9.582;2022-07-06T12:40:36;1.67;;;0.30;;
72621;SDS011;60665;53.506;9.582;2022-07-06T12:43:02;1.73;;;0.30;;
72621;SDS011;60665;53.506;9.582;2022-07-06T12:45:28;5.20;;;0.50;;
72621;SDS011;60665;53.506;9.582;2022-07-06T12:48:02;4.68;;;0.50;;
72621;SDS011;60665;53.506;9.582;2022-07-06T12:50:35;2.83;;;0.40;;
72621;SDS011;60665;53.506;9.582;2022-07-06T12:53:02;3.95;;;0.88;;
72621;SDS011;60665;53.506;9.582;2022-07-06T12:55:28;2.30;;;0.45;;
72621;SDS011;60665;53.506;9.582;2022-07-06T12:57:54;2.08;;;0.38;;
72621;SDS011;60665;53.506;9.582;2022-07-06T13:00:20;1.95;;;0.45;;
72621;SDS011;60665;53.506;9.582;2022-07-06T13:02:50;4.38;;;0.65;;
72621;SDS011;60665;53.506;9.582;2022-07-06T13:05:27;2.05;;;0.40;;
72621;SDS011;60665;53.506;9.582;2022-07-06T13:07:53;2.25;;;0.40;;
72621;SDS011;60665;53.506;9.582;2022-07-06T13:10:19;1.45;;;0.30;;
72621;SDS011;60665;53.506;9.582;2022-07-06T13:12:45;1.15;;;0.30;;
72621;SDS011;60665;53.506;9.582;2022-07-06T13:15:11;2.05;;;0.50;;
72621;SDS011;60665;53.506;9.582;2022-07-06T13:17:36;1.73;;;0.50;;
72621;SDS011;60665;53.506;9.582;2022-07-06T13:20:02;1.88;;;0.50;;
72621;SDS011;60665;53.506;9.582;2022-07-06T13:22:29;2.47;;;0.38;;
72621;SDS011;60665;53.506;9.582;2022-07-06T13:24:54;1.52;;;0.40;;
72621;SDS011;60665;53.506;9.582;2022-07-06T13:27:19;1.90;;;0.60;;
72621;SDS011;60665;53.506;9.582;2022-07-06T13:29:45;3.38;;;0.45;;
72621;SDS011;60665;53.506;9.582;2022-07-06T13:32:10;4.05;;;0.60;;
72621;SDS011;60665;53.506;9.582;2022-07-06T13:34:35;2.47;;;0.60;;
72621;SDS011;60665;53.506;9.582;2022-07-06T13:37:02;5.25;;;0.88;;
72621;SDS011;60665;53.506;9.582;2022-07-06T13:39:29;3.75;;;0.63;;
72621;SDS011;60665;53.506;9.582;2022-07-06T13:41:54;4.68;;;0.60;;
72621;SDS011;60665;53.506;9.582;2022-07-06T13:44:20;2.47;;;0.45;;
72621;SDS011;60665;53.506;9.582;2022-07-06T13:46:45;3.33;;;0.50;;
72621;SDS011;60665;53.506;9.582;2022-07-06T13:49:31;4.20;;;0.60;;
72621;SDS011;60665;53.506;9.582;2022-07-06T13:51:56;2.22;;;0.50;;
72621;SDS011;60665;53.506;9.582;2022-07-06T13:54:28;1.45;;;0.40;;
72621;SDS011;60665;53.506;9.582;2022-07-06T13:56:53;3.17;;;0.50;;
72621;SDS011;60665;53.506;9.582;2022-07-06T13:59:19;4.15;;;0.63;;
72621;SDS011;60665;53.506;9.582;2022-07-06T14:01:44;4.05;;;0.55;;
72621;SDS011;60665;53.506;9.582;2022-07-06T14:04:10;2.15;;;0.50;;
72621;SDS011;60665;53.506;9.582;2022-07-06T14:06:35;2.38;;;0.50;;
72621;SDS011;60665;53.506;9.582;2022-07-06T14:09:01;4.28;;;0.80;;
72621;SDS011;60665;53.506;9.582;2022-07-06T14:11:26;4.13;;;0.60;;
72621;SDS011;60665;53.506;9.582;2022-07-06T14:13:52;4.72;;;0.52;;
72621;SDS011;60665;53.506;9.582;2022-07-06T14:16:17;4.65;;;0.63;;
72621;SDS011;60665;53.506;9.582;2022-07-06T14:18:43;2.83;;;0.47;;
72621;SDS011;60665;53.506;9.582;2022-07-06T14:21:08;4.00;;;0.70;;
72621;SDS011;60665;53.506;9.582;2022-07-06T14:23:34;3.65;;;0.50;;
72621;SDS011;60665;53.506;9.582;2022-07-06T14:25:59;3.70;;;0.50;;
72621;SDS011;60665;53.506;9.582;2022-07-06T14:28:25;2.50;;;0.60;;
72621;SDS011;60665;53.506;9.582;2022-07-06T14:30:50;3.05;;;0.57;;
72621;SDS011;60665;53.506;9.582;2022-07-06T14:33:16;5.05;;;0.70;;
72621;SDS011;60665;53.506;9.582;2022-07-06T14:35:48;4.25;;;0.60;;
72621;SDS011;60665;53.506;9.582;2022-07-06T14:38:16;3.03;;;0.43;;
72621;SDS011;60665;53.506;9.582;2022-07-06T14:40:41;3.20;;;0.55;;
72621;SDS011;60665;53.506;9.582;2022-07-06T14:43:07;4.88;;;0.50;;
72621;SDS011;60665;53.506;9.582;2022-07-06T14:45:33;3.58;;;0.60;;
72621;SDS011;60665;53.506;9.582;2022-07-06T14:47:58;2.80;;;0.43;;
72621;SDS011;60665;53.506;9.582;2022-07-06T14:50:24;4.20;;;0.90;;
72621;SDS011;60665;53.506;9.582;2022-07-06T14:52:49;4.68;;;0.50;;
72621;SDS011;60665;53.506;9.582;2022-07-06T14:55:16;3.60;;;0.63;;
72621;SDS011;60665;53.506;9.582;2022-07-06T14:57:41;4.18;;;0.60;;
72621;SDS011;60665;53.506;9.582;2022-07-06T15:00:07;2.58;;;0.80;;